createdAt,value
2018-07-11T00:01:23.823Z,21.53
2018-07-11T00:03:54.077Z,23.13
2018-07-11T00:06:23.611Z,27.27
2018-07-11T00:08:51.596Z,27.47
2018-07-11T00:11:19.857Z,23.73
2018-07-11T00:13:48.533Z,24.57
2018-07-11T00:16:17.061Z,24.87
2018-07-11T00:18:45.299Z,23.97
2018-07-11T00:21:13.539Z,23.05
2018-07-11T00:23:41.746Z,23.23
2018-07-11T00:26:11.238Z,28.87
2018-07-11T00:28:39.505Z,23.12
2018-07-11T00:31:07.785Z,23.02
2018-07-11T00:33:36.014Z,31.33
2018-07-11T00:36:04.297Z,21.33
2018-07-11T00:38:32.545Z,25.03
2018-07-11T00:41:01.113Z,24.40
2018-07-11T00:43:31.227Z,25.23
2018-07-11T00:46:00.111Z,23.90
2018-07-11T00:48:28.370Z,21.93
2018-07-11T00:50:57.047Z,28.67
2018-07-11T00:53:25.297Z,24.90
2018-07-11T00:55:53.548Z,27.65
2018-07-11T00:58:24.229Z,24.50
2018-07-11T01:00:57.778Z,28.93
2018-07-11T01:03:26.049Z,23.38
2018-07-11T01:05:54.299Z,31.48
2018-07-11T01:08:22.559Z,31.87
2018-07-11T01:10:50.816Z,30.27
2018-07-11T01:13:19.079Z,32.28
2018-07-11T01:15:47.394Z,30.65
2018-07-11T01:18:17.489Z,28.20
2018-07-11T01:20:46.267Z,29.87
2018-07-11T01:23:14.489Z,25.52
2018-07-11T01:25:42.714Z,22.48
2018-07-11T01:28:11.140Z,26.02
2018-07-11T01:30:39.385Z,24.50
2018-07-11T01:33:07.669Z,22.50
2018-07-11T01:35:35.925Z,31.57
2018-07-11T01:38:04.189Z,26.07
2018-07-11T01:40:33.269Z,25.50
2018-07-11T01:43:01.533Z,26.68
2018-07-11T01:45:29.757Z,27.98
2018-07-11T01:47:57.985Z,35.83
2018-07-11T01:50:26.285Z,30.95
2018-07-11T01:52:56.970Z,27.90
2018-07-11T01:55:25.497Z,26.00
2018-07-11T01:57:55.591Z,30.20
2018-07-11T02:00:24.113Z,31.85
2018-07-11T02:02:52.318Z,31.65
2018-07-11T02:05:20.533Z,30.57
2018-07-11T02:07:48.735Z,32.48
2018-07-11T02:10:16.965Z,26.93
2018-07-11T02:12:45.180Z,29.77
2018-07-11T02:15:13.442Z,32.03
2018-07-11T02:17:41.673Z,34.73
2018-07-11T02:20:13.519Z,30.60
2018-07-11T02:22:42.006Z,24.63
2018-07-11T02:25:10.885Z,27.13
2018-07-11T02:27:39.230Z,34.50
2018-07-11T02:30:07.441Z,29.70
2018-07-11T02:32:35.681Z,26.73
2018-07-11T02:35:03.923Z,21.82
2018-07-11T02:37:32.357Z,27.20
2018-07-11T02:40:00.342Z,24.82
2018-07-11T02:42:29.318Z,27.05
2018-07-11T02:44:57.819Z,23.90
2018-07-11T02:47:31.365Z,26.75
2018-07-11T02:49:59.588Z,31.65
2018-07-11T02:52:27.826Z,31.77
2018-07-11T02:54:56.031Z,26.73
2018-07-11T02:57:24.241Z,31.17
2018-07-11T02:59:52.442Z,31.12
2018-07-11T03:02:20.685Z,32.42
2018-07-11T03:04:48.934Z,30.55
2018-07-11T03:07:17.204Z,29.55
2018-07-11T03:09:45.457Z,29.10
2018-07-11T03:12:13.674Z,28.57
2018-07-11T03:14:44.698Z,28.35
2018-07-11T03:17:12.948Z,30.72
2018-07-11T03:19:41.197Z,27.00
2018-07-11T03:22:09.429Z,33.05
2018-07-11T03:24:37.982Z,30.68
2018-07-11T03:27:06.293Z,32.55
2018-07-11T03:29:34.248Z,24.00
2018-07-11T03:32:02.495Z,27.67
2018-07-11T03:34:30.702Z,25.35
2018-07-11T03:36:58.665Z,32.35
2018-07-11T03:39:26.926Z,30.93
2018-07-11T03:41:55.141Z,27.65
2018-07-11T03:44:23.379Z,22.67
2018-07-11T03:46:51.649Z,28.27
2018-07-11T03:49:19.633Z,25.70
2018-07-11T03:51:47.862Z,21.93
2018-07-11T03:54:16.088Z,37.42
2018-07-11T03:56:44.334Z,31.02
2018-07-11T03:59:13.024Z,28.67
2018-07-11T04:01:41.230Z,29.60
2018-07-11T04:04:09.585Z,28.32
2018-07-11T04:06:37.853Z,27.00
2018-07-11T04:09:06.209Z,29.02
2018-07-11T04:11:34.452Z,26.33
2018-07-11T04:14:02.713Z,31.42
2018-07-11T04:16:31.017Z,26.60
2018-07-11T04:18:59.289Z,23.02
2018-07-11T04:21:27.534Z,32.33
2018-07-11T04:23:55.517Z,25.82
2018-07-11T04:26:23.785Z,27.87
2018-07-11T04:28:52.091Z,25.52
2018-07-11T04:31:20.361Z,23.80
2018-07-11T04:33:48.994Z,21.37
2018-07-11T04:36:17.235Z,27.70
2018-07-11T04:38:45.446Z,29.98
2018-07-11T04:41:13.719Z,26.20
2018-07-11T04:43:41.922Z,23.98
2018-07-11T04:46:10.141Z,24.07
2018-07-11T04:48:38.353Z,24.98
2018-07-11T04:51:06.382Z,21.97
2018-07-11T04:53:34.631Z,24.25
2018-07-11T04:56:04.518Z,23.13
2018-07-11T04:58:33.262Z,25.90
2018-07-11T05:01:01.573Z,19.60
2018-07-11T05:03:30.109Z,25.85
2018-07-11T05:05:58.381Z,24.27
2018-07-11T05:08:27.046Z,24.03
2018-07-11T05:10:55.322Z,21.15
2018-07-11T05:13:23.585Z,24.60
2018-07-11T05:15:51.841Z,19.30
2018-07-11T05:18:20.074Z,24.20
2018-07-11T05:20:48.290Z,18.13
2018-07-11T05:23:16.522Z,19.00
2018-07-11T05:25:44.801Z,16.27
2018-07-11T05:28:13.033Z,14.67
2018-07-11T05:30:41.234Z,15.60
2018-07-11T05:33:09.269Z,24.27
2018-07-11T05:35:37.583Z,17.30
2018-07-11T05:38:05.864Z,16.40
2018-07-11T05:40:34.163Z,15.70
2018-07-11T05:43:02.768Z,16.60
2018-07-11T05:45:31.049Z,18.13
2018-07-11T05:47:59.249Z,18.80
2018-07-11T05:50:27.461Z,16.80
2018-07-11T05:52:55.663Z,12.40
2018-07-11T05:55:23.905Z,17.07
2018-07-11T05:57:51.862Z,16.27
2018-07-11T06:00:20.444Z,14.27
2018-07-11T06:02:48.722Z,13.20
2018-07-11T06:05:16.915Z,17.23
2018-07-11T06:07:45.137Z,12.80
2018-07-11T06:10:13.334Z,14.03
2018-07-11T06:12:41.542Z,17.30
2018-07-11T06:15:09.796Z,11.73
2018-07-11T06:17:38.071Z,10.30
2018-07-11T06:20:06.517Z,12.77
2018-07-11T06:22:34.792Z,16.17
2018-07-11T06:25:03.010Z,12.63
2018-07-11T06:27:30.969Z,12.40
2018-07-11T06:30:01.792Z,13.40
2018-07-11T06:32:30.109Z,11.97
2018-07-11T06:34:58.423Z,15.13
2018-07-11T06:37:26.637Z,17.17
2018-07-11T06:39:54.946Z,10.57
2018-07-11T06:42:22.985Z,11.00
2018-07-11T06:44:51.352Z,9.03
2018-07-11T06:47:19.586Z,13.10
2018-07-11T06:49:48.671Z,9.53
2018-07-11T06:52:17.706Z,14.03
2018-07-11T06:54:46.060Z,13.73
2018-07-11T06:57:14.330Z,11.87
2018-07-11T06:59:42.522Z,8.67
2018-07-11T07:02:10.791Z,11.00
2018-07-11T07:04:39.053Z,11.10
2018-07-11T07:07:07.291Z,12.67
2018-07-11T07:09:39.739Z,9.67
2018-07-11T07:12:08.032Z,4.00
2018-07-11T07:14:36.231Z,7.17
2018-07-11T07:17:04.474Z,4.87
2018-07-11T07:19:32.766Z,8.10
2018-07-11T07:22:00.987Z,6.77
2018-07-11T07:24:29.234Z,6.70
2018-07-11T07:26:57.476Z,5.23
2018-07-11T07:29:26.101Z,10.30
2018-07-11T07:31:54.297Z,7.43
2018-07-11T07:34:22.496Z,5.03
2018-07-11T07:36:50.712Z,7.50
2018-07-11T07:39:18.973Z,6.23
2018-07-11T07:41:47.270Z,6.17
2018-07-11T07:44:15.507Z,5.90
2018-07-11T07:46:48.970Z,8.23
2018-07-11T07:49:17.189Z,3.93
2018-07-11T07:51:45.517Z,5.33
2018-07-11T07:54:13.745Z,6.23
2018-07-11T07:56:41.942Z,4.03
2018-07-11T07:59:10.186Z,10.10
2018-07-11T08:01:38.418Z,6.00
2018-07-11T08:04:07.449Z,6.40
2018-07-11T08:06:35.674Z,6.47
2018-07-11T08:09:04.607Z,5.77
2018-07-11T08:11:32.850Z,9.03
2018-07-11T08:14:01.114Z,6.27
2018-07-11T08:16:29.393Z,3.30
2018-07-11T08:18:57.681Z,3.97
2018-07-11T08:21:25.955Z,3.67
2018-07-11T08:24:05.621Z,4.80
2018-07-11T08:26:45.197Z,2.03
2018-07-11T08:31:56.465Z,5.20
2018-07-11T08:35:06.197Z,3.13
2018-07-11T08:37:41.125Z,5.50
2018-07-11T08:40:31.001Z,4.63
2018-07-11T08:43:15.870Z,4.87
2018-07-11T08:45:52.867Z,4.53
2018-07-11T08:48:28.910Z,3.83
2018-07-11T08:52:10.229Z,3.30
2018-07-11T08:54:48.903Z,7.60
2018-07-11T08:59:33.402Z,4.43
2018-07-11T09:02:11.891Z,5.33
2018-07-11T09:04:51.582Z,5.63
2018-07-11T09:07:31.165Z,4.77
2018-07-11T09:10:14.636Z,4.33
2018-07-11T09:14:03.106Z,3.00
2018-07-11T09:16:43.321Z,4.37
2018-07-11T09:21:26.889Z,4.70
2018-07-11T09:24:39.820Z,4.83
2018-07-11T09:27:08.418Z,5.63
2018-07-11T09:29:36.753Z,4.63
2018-07-11T09:32:05.022Z,7.90
2018-07-11T09:34:33.388Z,6.10
2018-07-11T09:37:01.748Z,4.87
2018-07-11T09:39:29.997Z,3.47
2018-07-11T09:41:58.248Z,4.20
2018-07-11T09:44:26.471Z,6.43
2018-07-11T09:46:55.907Z,4.10
2018-07-11T09:49:24.901Z,8.20
2018-07-11T09:51:53.434Z,4.23
2018-07-11T09:54:21.650Z,5.23
2018-07-11T09:56:50.320Z,7.10
2018-07-11T09:59:19.474Z,5.90
2018-07-11T10:01:53.202Z,5.20
2018-07-11T10:04:21.498Z,7.93
2018-07-11T10:06:49.478Z,5.13
2018-07-11T10:09:18.067Z,6.87
2018-07-11T10:11:46.928Z,7.03
2018-07-11T10:14:16.072Z,4.40
2018-07-11T10:16:51.178Z,5.43
2018-07-11T10:19:19.420Z,4.60
2018-07-11T10:21:47.714Z,5.23
2018-07-11T10:24:15.973Z,5.67
2018-07-11T10:26:44.218Z,6.30
2018-07-11T10:29:12.482Z,5.60
2018-07-11T10:31:40.755Z,6.80
2018-07-11T10:34:08.941Z,5.53
2018-07-11T10:36:37.198Z,5.90
2018-07-11T10:39:06.246Z,5.03
2018-07-11T10:41:34.529Z,10.60
2018-07-11T10:44:02.837Z,7.07
2018-07-11T10:46:31.175Z,7.30
2018-07-11T10:48:59.383Z,10.00
2018-07-11T10:51:27.594Z,5.60
2018-07-11T10:53:55.869Z,4.87
2018-07-11T10:56:24.115Z,9.90
2018-07-11T10:58:52.073Z,7.50
2018-07-11T11:01:20.360Z,9.03
2018-07-11T11:03:48.577Z,5.57
2018-07-11T11:06:16.765Z,7.80
2018-07-11T11:08:44.761Z,9.97
2018-07-11T11:11:12.981Z,8.87
2018-07-11T11:13:41.213Z,6.73
2018-07-11T11:16:09.438Z,10.43
2018-07-11T11:18:37.695Z,9.77
2018-07-11T11:21:05.922Z,7.43
2018-07-11T11:23:33.906Z,9.73
2018-07-11T11:26:02.182Z,9.90
2018-07-11T11:28:30.436Z,8.40
2018-07-11T11:30:58.646Z,8.23
2018-07-11T11:33:26.852Z,11.37
2018-07-11T11:35:55.090Z,7.13
2018-07-11T11:38:23.342Z,5.13
2018-07-11T11:40:51.869Z,7.33
2018-07-11T11:43:20.133Z,6.53
2018-07-11T11:45:48.390Z,8.20
2018-07-11T11:48:17.065Z,7.93
2018-07-11T11:50:45.265Z,5.47
2018-07-11T11:53:14.200Z,6.47
2018-07-11T11:55:42.582Z,5.87
2018-07-11T11:58:11.146Z,6.73
2018-07-11T12:00:39.666Z,8.63
2018-07-11T12:03:07.870Z,8.23
2018-07-11T12:05:36.118Z,5.60
2018-07-11T12:08:04.145Z,7.43
2018-07-11T12:10:32.396Z,9.67
2018-07-11T12:13:00.817Z,12.67
2018-07-11T12:15:29.007Z,7.07
2018-07-11T12:17:57.244Z,9.80
2018-07-11T12:20:25.422Z,7.10
2018-07-11T12:22:53.509Z,7.80
2018-07-11T12:25:21.762Z,9.73
2018-07-11T12:27:49.726Z,9.17
2018-07-11T12:30:17.951Z,7.93
2018-07-11T12:32:45.937Z,6.57
2018-07-11T12:35:14.162Z,11.60
2018-07-11T12:37:42.385Z,7.80
2018-07-11T12:40:10.630Z,8.23
2018-07-11T12:42:38.867Z,8.37
2018-07-11T12:45:07.104Z,8.87
2018-07-11T12:47:40.907Z,6.13
2018-07-11T12:50:09.153Z,8.97
2018-07-11T12:52:37.377Z,7.63
2018-07-11T12:55:05.649Z,6.83
2018-07-11T12:57:33.905Z,7.13
2018-07-11T13:00:02.249Z,7.97
2018-07-11T13:02:30.478Z,7.57
2018-07-11T13:04:58.745Z,7.00
2018-07-11T13:07:26.974Z,9.10
2018-07-11T13:09:54.938Z,9.20
2018-07-11T13:12:23.133Z,5.20
2018-07-11T13:14:51.129Z,7.70
2018-07-11T13:17:19.409Z,10.60
2018-07-11T13:19:47.458Z,14.23
2018-07-11T13:22:16.121Z,10.60
2018-07-11T13:24:44.370Z,10.70
2018-07-11T13:27:13.193Z,12.67
2018-07-11T13:29:41.390Z,9.97
2018-07-11T13:32:09.593Z,11.47
2018-07-11T13:34:37.566Z,10.23
2018-07-11T13:37:05.806Z,8.23
2018-07-11T13:39:34.102Z,8.90
2018-07-11T13:42:02.402Z,6.63
2018-07-11T13:44:30.606Z,7.03
2018-07-11T13:46:58.833Z,7.80
2018-07-11T13:49:27.110Z,4.60
2018-07-11T13:51:55.361Z,5.90
2018-07-11T13:54:23.594Z,6.20
2018-07-11T13:56:51.587Z,6.47
2018-07-11T13:59:19.909Z,10.23
2018-07-11T14:01:48.150Z,8.00
2018-07-11T14:04:16.346Z,5.70
2018-07-11T14:06:44.557Z,6.07
2018-07-11T14:09:12.754Z,6.33
2018-07-11T14:11:40.958Z,9.47
2018-07-11T14:14:09.169Z,9.67
2018-07-11T14:16:37.101Z,6.27
2018-07-11T14:19:05.122Z,5.53
2018-07-11T14:21:33.387Z,4.97
2018-07-11T14:24:01.678Z,6.43
2018-07-11T14:26:29.912Z,4.43
2018-07-11T14:28:59.230Z,4.53
2018-07-11T14:31:31.454Z,7.30
2018-07-11T14:34:01.710Z,6.30
2018-07-11T14:36:30.418Z,5.13
2018-07-11T14:38:58.517Z,6.80
2018-07-11T14:41:26.780Z,6.33
2018-07-11T14:43:55.585Z,6.10
2018-07-11T14:46:25.142Z,4.13
2018-07-11T14:48:53.573Z,4.27
2018-07-11T14:51:21.644Z,4.13
2018-07-11T14:53:49.826Z,4.93
2018-07-11T14:56:18.993Z,5.67
2018-07-11T14:58:47.005Z,6.10
2018-07-11T15:01:15.285Z,9.40
2018-07-11T15:03:43.577Z,5.97
2018-07-11T15:06:11.812Z,8.03
2018-07-11T15:08:40.100Z,10.30
2018-07-11T15:11:08.214Z,9.23
2018-07-11T15:13:36.565Z,6.43
2018-07-11T15:16:04.521Z,5.93
2018-07-11T15:18:32.745Z,7.83
2018-07-11T15:21:00.986Z,6.93
2018-07-11T15:23:29.182Z,6.07
2018-07-11T15:25:57.423Z,8.20
2018-07-11T15:28:25.663Z,6.70
2018-07-11T15:30:53.981Z,5.43
2018-07-11T15:33:22.490Z,6.83
2018-07-11T15:35:51.166Z,6.50
2018-07-11T15:38:19.377Z,11.07
2018-07-11T15:40:47.318Z,10.80
2018-07-11T15:43:15.549Z,6.87
2018-07-11T15:45:43.727Z,9.93
2018-07-11T15:48:11.954Z,9.40
2018-07-11T15:50:40.677Z,8.73
2018-07-11T15:53:08.847Z,6.70
2018-07-11T15:55:37.101Z,12.10
2018-07-11T15:58:12.373Z,7.60
2018-07-11T16:00:41.595Z,10.90
2018-07-11T16:03:11.122Z,7.60
2018-07-11T16:05:41.548Z,11.33
2018-07-11T16:08:09.353Z,7.10
2018-07-11T16:10:41.282Z,9.50
2018-07-11T16:13:09.517Z,11.20
2018-07-11T16:15:37.841Z,9.20
2018-07-11T16:18:07.304Z,16.03
2018-07-11T16:20:36.009Z,16.13
2018-07-11T16:23:04.498Z,11.20
2018-07-11T16:25:32.881Z,10.77
2018-07-11T16:28:01.828Z,11.20
2018-07-11T16:30:30.093Z,11.40
2018-07-11T16:32:58.369Z,12.73
2018-07-11T16:35:26.610Z,12.13
2018-07-11T16:37:54.869Z,12.03
2018-07-11T16:40:23.081Z,13.03
2018-07-11T16:42:51.446Z,11.87
2018-07-11T16:45:19.402Z,12.77
2018-07-11T16:47:47.639Z,16.53
2018-07-11T16:50:16.510Z,12.40
2018-07-11T16:52:45.627Z,10.60
2018-07-11T16:55:13.662Z,12.50
2018-07-11T16:57:44.014Z,9.20
2018-07-11T17:00:12.099Z,17.37
2018-07-11T17:02:41.464Z,13.40
2018-07-11T17:05:10.455Z,16.67
2018-07-11T17:07:49.501Z,9.30
2018-07-11T17:10:19.058Z,12.70
2018-07-11T17:12:51.206Z,12.90
2018-07-11T17:15:19.997Z,10.90
2018-07-11T17:17:48.285Z,12.77
2018-07-11T17:20:16.505Z,13.43
2018-07-11T17:22:52.388Z,10.10
2018-07-11T17:25:21.066Z,12.13
2018-07-11T17:27:53.242Z,11.10
2018-07-11T17:30:21.666Z,15.43
2018-07-11T17:32:49.930Z,9.27
2018-07-11T17:35:18.280Z,11.03
2018-07-11T17:37:46.505Z,10.93
2018-07-11T17:40:14.773Z,9.40
2018-07-11T17:42:43.293Z,9.97
2018-07-11T17:45:14.671Z,8.30
2018-07-11T17:47:53.245Z,13.80
2018-07-11T17:50:26.341Z,11.03
2018-07-11T17:53:03.771Z,11.83
2018-07-11T17:55:34.310Z,10.67
2018-07-11T17:58:06.022Z,14.37
2018-07-11T18:00:42.036Z,8.57
2018-07-11T18:03:20.190Z,12.17
2018-07-11T18:05:55.429Z,12.40
2018-07-11T18:08:29.738Z,10.57
2018-07-11T18:10:58.674Z,13.80
2018-07-11T18:13:31.651Z,16.07
2018-07-11T18:17:10.111Z,10.70
2018-07-11T18:19:50.934Z,14.70
2018-07-11T18:22:26.257Z,11.63
2018-07-11T18:26:07.353Z,11.53
2018-07-11T18:28:43.048Z,12.70
2018-07-11T18:32:25.350Z,13.33
2018-07-11T18:35:05.654Z,16.90
2018-07-11T18:37:40.993Z,13.17
2018-07-11T18:40:20.430Z,15.73
2018-07-11T18:42:57.639Z,15.63
2018-07-11T18:45:32.873Z,14.07
2018-07-11T18:50:14.968Z,17.30
2018-07-11T18:52:52.965Z,14.27
2018-07-11T18:55:54.253Z,11.70
2018-07-11T18:58:27.744Z,13.60
2018-07-11T19:01:00.974Z,11.03
2018-07-11T19:03:33.423Z,14.53
2018-07-11T19:06:13.271Z,14.13
2018-07-11T19:08:48.591Z,11.20
2018-07-11T19:11:20.933Z,10.13
2018-07-11T19:13:50.908Z,16.07
2018-07-11T19:16:33.278Z,15.43
2018-07-11T19:19:06.470Z,11.93
2018-07-11T19:21:40.189Z,17.23
2018-07-11T19:24:12.990Z,10.77
2018-07-11T19:27:06.936Z,17.13
2018-07-11T19:30:13.597Z,14.03
2018-07-11T19:33:06.017Z,12.07
2018-07-11T19:35:42.890Z,11.90
2018-07-11T19:38:28.977Z,11.53
2018-07-11T19:41:07.014Z,18.77
2018-07-11T19:44:00.781Z,11.87
2018-07-11T19:47:06.262Z,14.80
2018-07-11T19:49:46.561Z,12.17
2018-07-11T19:52:28.381Z,15.70
2018-07-11T19:57:05.793Z,14.53
2018-07-11T19:59:34.014Z,17.43
2018-07-11T20:02:02.268Z,18.97
2018-07-11T20:04:30.486Z,12.37
2018-07-11T20:06:58.517Z,10.93
2018-07-11T20:09:26.781Z,18.67
2018-07-11T20:11:54.982Z,14.07
2018-07-11T20:14:23.277Z,15.63
2018-07-11T20:16:51.750Z,21.33
2018-07-11T20:19:21.009Z,16.20
2018-07-11T20:21:49.241Z,22.10
2018-07-11T20:24:17.497Z,18.50
2018-07-11T20:26:45.898Z,16.70
2018-07-11T20:29:14.113Z,20.53
2018-07-11T20:31:42.435Z,20.30
2018-07-11T20:34:10.410Z,21.57
2018-07-11T20:36:38.645Z,19.40
2018-07-11T20:39:06.902Z,22.57
2018-07-11T20:41:35.117Z,21.93
2018-07-11T20:44:03.418Z,20.80
2018-07-11T20:46:32.516Z,20.70
2018-07-11T20:49:06.369Z,20.63
2018-07-11T20:51:34.339Z,18.83
2018-07-11T20:54:02.436Z,17.20
2018-07-11T20:56:30.663Z,19.83
2018-07-11T20:59:10.350Z,20.50
2018-07-11T21:01:43.881Z,23.83
2018-07-11T21:06:31.097Z,23.00
2018-07-11T21:09:11.061Z,22.13
2018-07-11T21:11:54.374Z,23.23
2018-07-11T21:14:27.989Z,20.33
2018-07-11T21:17:04.614Z,23.73
2018-07-11T21:19:32.581Z,24.40
2018-07-11T21:22:00.834Z,25.77
2018-07-11T21:24:29.081Z,23.33
2018-07-11T21:26:57.347Z,23.10
2018-07-11T21:29:25.859Z,24.87
2018-07-11T21:31:54.105Z,25.60
2018-07-11T21:34:22.426Z,22.60
2018-07-11T21:36:50.687Z,24.83
2018-07-11T21:39:18.902Z,23.33
2018-07-11T21:41:46.914Z,23.57
2018-07-11T21:44:15.149Z,22.83
2018-07-11T21:46:43.754Z,26.10
2018-07-11T21:49:13.805Z,24.90
2018-07-11T21:51:42.054Z,28.90
2018-07-11T21:54:10.267Z,24.10
2018-07-11T21:56:38.505Z,28.93
2018-07-11T21:59:06.761Z,25.80
2018-07-11T22:01:34.785Z,32.77
2018-07-11T22:04:03.069Z,26.53
2018-07-11T22:06:31.284Z,23.00
2018-07-11T22:08:59.265Z,30.30
2018-07-11T22:11:27.636Z,28.13
2018-07-11T22:13:55.760Z,25.73
2018-07-11T22:16:23.701Z,27.77
2018-07-11T22:18:51.968Z,23.97
2018-07-11T22:21:19.173Z,20.00
2018-07-11T22:23:46.478Z,25.50
2018-07-11T22:26:13.660Z,24.07
2018-07-11T22:28:41.007Z,26.00
2018-07-11T22:31:08.243Z,26.43
2018-07-11T22:33:35.710Z,27.27
2018-07-11T22:36:02.946Z,20.33
2018-07-11T22:38:30.205Z,27.10
2018-07-11T22:40:57.437Z,33.57
2018-07-11T22:43:24.654Z,26.20
2018-07-11T22:45:51.870Z,25.33
2018-07-11T22:48:19.097Z,30.27
2018-07-11T22:50:46.320Z,29.93
2018-07-11T22:53:13.538Z,25.13
2018-07-11T22:55:40.749Z,27.30
2018-07-11T22:58:07.986Z,22.77
2018-07-11T23:00:35.452Z,26.47
2018-07-11T23:03:02.662Z,30.23
2018-07-11T23:05:29.883Z,28.47
2018-07-11T23:07:57.132Z,26.57
2018-07-11T23:10:24.351Z,25.13
2018-07-11T23:12:51.821Z,36.83
2018-07-11T23:15:19.045Z,31.37
2018-07-11T23:17:46.258Z,33.10
2018-07-11T23:20:13.466Z,33.60
2018-07-11T23:22:40.941Z,34.30
2018-07-11T23:25:08.194Z,27.63
2018-07-11T23:27:35.469Z,36.17
2018-07-11T23:30:02.718Z,31.93
2018-07-11T23:32:29.947Z,36.57
2018-07-11T23:34:57.477Z,27.73
2018-07-11T23:37:24.705Z,28.97
2018-07-11T23:39:51.933Z,32.53
2018-07-11T23:42:19.401Z,28.30
2018-07-11T23:44:46.624Z,36.13
2018-07-11T23:47:13.844Z,34.03
2018-07-11T23:49:41.566Z,29.60
2018-07-11T23:52:08.926Z,25.37
2018-07-11T23:54:36.405Z,34.03
2018-07-11T23:57:03.637Z,28.87
2018-07-11T23:59:30.889Z,25.27
